createdAt,value
2022-11-08T00:02:21.013Z,68.68
2022-11-08T00:05:44.734Z,69.40
2022-11-08T00:09:05.159Z,68.81
2022-11-08T00:12:26.534Z,69.13
2022-11-08T00:15:29.410Z,68.48
2022-11-08T00:18:32.163Z,69.18
2022-11-08T00:21:36.102Z,69.59
2022-11-08T00:24:39.146Z,70.12
2022-11-08T00:27:41.767Z,69.21
2022-11-08T00:30:45.511Z,70.00
2022-11-08T00:33:48.081Z,68.65
2022-11-08T00:36:53.061Z,69.96
2022-11-08T00:39:55.771Z,69.68
2022-11-08T00:42:58.306Z,69.64
2022-11-08T00:46:03.747Z,70.38
2022-11-08T00:49:06.990Z,71.02
2022-11-08T00:52:11.151Z,70.91
2022-11-08T00:55:14.050Z,70.11
2022-11-08T00:58:17.039Z,70.70
2022-11-08T01:01:22.224Z,70.40
2022-11-08T01:04:25.108Z,71.31
2022-11-08T01:07:29.045Z,70.90
2022-11-08T01:10:31.901Z,70.27
2022-11-08T01:13:35.268Z,70.40
2022-11-08T01:16:38.059Z,71.41
2022-11-08T01:19:40.833Z,70.49
2022-11-08T01:22:44.794Z,71.26
2022-11-08T01:25:49.365Z,71.09
2022-11-08T01:28:52.428Z,71.29
2022-11-08T01:31:55.380Z,70.54
2022-11-08T01:34:58.046Z,70.80
2022-11-08T01:38:02.195Z,71.84
2022-11-08T01:41:05.163Z,72.43
2022-11-08T01:44:15.222Z,72.15
2022-11-08T01:47:17.994Z,72.45
2022-11-08T01:50:20.742Z,72.04
2022-11-08T01:53:25.100Z,71.99
2022-11-08T01:56:28.647Z,71.73
2022-11-08T01:59:32.776Z,72.24
2022-11-08T02:02:38.128Z,72.34
2022-11-08T02:05:41.492Z,72.50
2022-11-08T02:08:46.196Z,72.14
2022-11-08T02:11:50.931Z,71.43
2022-11-08T02:14:53.577Z,72.02
2022-11-08T02:17:56.445Z,71.32
2022-11-08T02:21:06.760Z,71.85
2022-11-08T02:24:12.852Z,71.54
2022-11-08T02:27:16.270Z,72.71
2022-11-08T02:30:18.981Z,72.94
2022-11-08T02:33:23.462Z,71.90
2022-11-08T02:36:26.454Z,72.24
2022-11-08T02:39:32.481Z,71.76
2022-11-08T02:42:35.300Z,72.21
2022-11-08T02:45:37.936Z,72.30
2022-11-08T02:48:40.683Z,72.63
2022-11-08T02:51:43.375Z,72.28
2022-11-08T02:54:47.454Z,71.98
2022-11-08T02:57:50.166Z,72.05
2022-11-08T03:00:52.798Z,72.56
2022-11-08T03:03:55.600Z,71.77
2022-11-08T03:06:58.167Z,72.25
2022-11-08T03:10:02.190Z,72.22
2022-11-08T03:13:06.359Z,72.65
2022-11-08T03:16:09.468Z,71.78
2022-11-08T03:19:12.966Z,71.58
2022-11-08T03:22:16.509Z,72.04
2022-11-08T03:25:20.656Z,72.54
2022-11-08T03:28:23.700Z,72.44
2022-11-08T03:31:26.700Z,71.28
2022-11-08T03:34:29.428Z,72.16
2022-11-08T03:37:32.063Z,73.60
2022-11-08T03:40:36.232Z,72.25
2022-11-08T03:43:38.810Z,72.02
2022-11-08T03:46:41.498Z,72.26
2022-11-08T03:49:44.197Z,72.74
2022-11-08T03:52:48.698Z,72.80
2022-11-08T03:55:52.749Z,73.34
2022-11-08T03:58:55.291Z,73.84
2022-11-08T04:01:58.032Z,73.86
2022-11-08T04:05:01.571Z,74.28
2022-11-08T04:08:05.870Z,72.98
2022-11-08T04:11:27.561Z,72.06
2022-11-08T04:14:47.455Z,74.15
2022-11-08T04:18:08.837Z,73.56
2022-11-08T04:21:21.927Z,74.60
2022-11-08T04:24:24.735Z,74.46
2022-11-08T04:27:28.775Z,74.88
2022-11-08T04:30:31.589Z,73.74
2022-11-08T04:33:34.360Z,73.83
2022-11-08T04:36:37.226Z,74.28
2022-11-08T04:39:39.865Z,74.06
2022-11-08T04:42:46.186Z,73.22
2022-11-08T04:45:48.744Z,73.92
2022-11-08T04:48:53.946Z,75.14
2022-11-08T04:51:56.616Z,75.54
2022-11-08T04:54:59.188Z,74.68
2022-11-08T04:58:03.207Z,75.21
2022-11-08T05:01:07.471Z,75.28
2022-11-08T05:04:10.243Z,75.40
2022-11-08T05:07:12.917Z,75.91
2022-11-08T05:10:15.692Z,75.59
2022-11-08T05:13:19.964Z,74.92
2022-11-08T05:16:25.828Z,75.29
2022-11-08T05:19:42.458Z,74.81
2022-11-08T05:23:17.492Z,76.22
2022-11-08T05:26:21.277Z,75.95
2022-11-08T05:29:25.297Z,75.90
2022-11-08T05:32:27.860Z,75.94
2022-11-08T05:35:30.586Z,75.86
2022-11-08T05:38:33.329Z,76.32
2022-11-08T05:41:35.918Z,76.27
2022-11-08T05:44:39.967Z,76.40
2022-11-08T05:47:45.680Z,76.84
2022-11-08T05:50:49.506Z,77.01
2022-11-08T05:53:52.186Z,76.12
2022-11-08T05:56:54.751Z,77.24
2022-11-08T05:59:58.821Z,77.76
2022-11-08T06:03:02.791Z,76.74
2022-11-08T06:06:07.399Z,77.04
2022-11-08T06:09:10.147Z,78.01
2022-11-08T06:12:12.737Z,77.66
2022-11-08T06:15:17.036Z,76.69
2022-11-08T06:18:19.599Z,76.87
2022-11-08T06:21:22.885Z,76.74
2022-11-08T06:24:25.656Z,77.46
2022-11-08T06:27:28.710Z,76.93
2022-11-08T06:30:32.771Z,78.26
2022-11-08T06:33:35.341Z,77.77
2022-11-08T06:36:38.325Z,77.52
2022-11-08T06:39:42.063Z,77.53
2022-11-08T06:42:44.691Z,78.43
2022-11-08T06:45:48.998Z,78.20
2022-11-08T06:48:51.697Z,77.94
2022-11-08T06:51:54.747Z,77.14
2022-11-08T06:54:57.483Z,77.13
2022-11-08T06:58:00.251Z,77.31
2022-11-08T07:01:06.299Z,78.17
2022-11-08T07:04:08.911Z,78.22
2022-11-08T07:07:11.744Z,77.23
2022-11-08T07:10:14.291Z,77.63
2022-11-08T07:13:17.460Z,77.74
2022-11-08T07:16:21.761Z,77.41
2022-11-08T07:19:24.325Z,76.23
2022-11-08T07:22:27.096Z,76.23
2022-11-08T07:25:31.132Z,76.17
2022-11-08T07:28:33.889Z,75.92
2022-11-08T07:31:38.025Z,76.05
2022-11-08T07:34:40.627Z,76.47
2022-11-08T07:37:43.467Z,74.81
2022-11-08T07:40:46.048Z,73.83
2022-11-08T07:43:49.299Z,74.82
2022-11-08T07:46:53.351Z,74.66
2022-11-08T07:49:55.865Z,74.63
2022-11-08T07:52:58.978Z,74.47
2022-11-08T07:56:01.595Z,74.19
2022-11-08T07:59:04.564Z,74.71
2022-11-08T08:02:10.497Z,74.01
2022-11-08T08:05:13.144Z,73.53
2022-11-08T08:08:15.896Z,73.18
2022-11-08T08:11:19.302Z,74.34
2022-11-08T08:14:22.102Z,74.27
2022-11-08T08:17:26.980Z,73.59
2022-11-08T08:20:30.740Z,73.97
2022-11-08T08:23:33.462Z,72.78
2022-11-08T08:26:36.083Z,73.02
2022-11-08T08:29:38.798Z,73.14
2022-11-08T08:32:43.850Z,73.19
2022-11-08T08:35:46.451Z,72.82
2022-11-08T08:38:49.174Z,72.71
2022-11-08T08:41:51.874Z,71.43
2022-11-08T08:44:54.773Z,70.78
2022-11-08T08:47:59.736Z,72.01
2022-11-08T08:51:02.788Z,69.98
2022-11-08T08:54:05.565Z,70.83
2022-11-08T08:57:08.306Z,69.15
2022-11-08T09:03:36.586Z,68.65
2022-11-08T09:06:39.211Z,68.71
2022-11-08T09:09:41.924Z,68.42
2022-11-08T09:12:44.778Z,68.39
2022-11-08T09:15:47.333Z,68.29
2022-11-08T09:18:51.602Z,67.60
2022-11-08T09:21:54.318Z,66.90
2022-11-08T09:24:57.045Z,66.34
2022-11-08T09:27:59.652Z,66.62
2022-11-08T09:31:03.874Z,65.12
2022-11-08T09:34:07.805Z,64.90
2022-11-08T09:37:10.530Z,63.85
2022-11-08T09:40:17.926Z,64.53
2022-11-08T09:43:51.987Z,62.73
2022-11-08T09:46:58.388Z,60.87
2022-11-08T09:50:07.084Z,61.26
2022-11-08T09:53:18.760Z,58.82
2022-11-08T09:56:28.522Z,57.58
2022-11-08T09:59:39.439Z,57.38
2022-11-08T10:02:42.235Z,58.01
2022-11-08T10:06:02.061Z,56.79
2022-11-08T10:09:17.766Z,55.29
2022-11-08T10:12:25.329Z,55.79
2022-11-08T10:15:38.203Z,56.30
2022-11-08T10:19:01.022Z,56.00
2022-11-08T10:22:08.956Z,57.10
2022-11-08T10:25:20.895Z,55.08
2022-11-08T10:28:30.560Z,54.01
2022-11-08T10:31:34.305Z,54.59
2022-11-08T10:34:43.231Z,54.31
2022-11-08T10:37:52.054Z,54.33
2022-11-08T10:41:05.811Z,54.10
2022-11-08T10:44:15.342Z,52.98
2022-11-08T10:47:24.355Z,53.78
2022-11-08T10:50:36.194Z,53.01
2022-11-08T10:53:45.555Z,51.52
2022-11-08T10:56:56.620Z,51.51
2022-11-08T11:00:17.943Z,53.19
2022-11-08T11:03:28.829Z,51.41
2022-11-08T11:06:33.979Z,50.30
2022-11-08T11:09:37.935Z,49.71
2022-11-08T11:12:40.714Z,49.53
2022-11-08T11:15:48.333Z,49.58
2022-11-08T11:18:51.420Z,48.80
2022-11-08T11:21:58.338Z,48.04
2022-11-08T11:25:14.678Z,48.78
2022-11-08T11:28:17.411Z,48.40
2022-11-08T11:31:20.725Z,48.81
2022-11-08T11:34:40.569Z,48.54
2022-11-08T11:37:46.086Z,49.31
2022-11-08T11:40:54.168Z,49.23
2022-11-08T11:44:05.101Z,49.19
2022-11-08T11:47:15.848Z,49.87
2022-11-08T11:50:30.034Z,49.52
2022-11-08T11:53:39.086Z,48.82
2022-11-08T11:56:49.293Z,49.29
2022-11-08T12:00:04.678Z,50.58
2022-11-08T12:03:28.712Z,50.65
2022-11-08T12:06:44.499Z,49.97
2022-11-08T12:09:58.391Z,50.57
2022-11-08T12:13:09.478Z,52.08
2022-11-08T12:16:18.448Z,51.14
2022-11-08T12:19:32.620Z,50.75
2022-11-08T12:22:49.838Z,50.00
2022-11-08T12:26:01.273Z,49.81
2022-11-08T12:29:19.697Z,51.04
2022-11-08T12:32:45.597Z,51.48
2022-11-08T12:36:03.255Z,51.34
2022-11-08T12:39:23.172Z,51.28
2022-11-08T12:42:49.128Z,51.74
2022-11-08T12:46:00.579Z,50.99
2022-11-08T12:49:20.072Z,50.37
2022-11-08T12:52:37.633Z,50.66
2022-11-08T12:55:43.313Z,50.24
2022-11-08T12:58:49.159Z,49.89
2022-11-08T13:01:54.693Z,49.61
2022-11-08T13:05:04.572Z,51.46
2022-11-08T13:08:18.776Z,50.40
2022-11-08T13:11:29.150Z,50.61
2022-11-08T13:14:37.172Z,51.31
2022-11-08T13:18:25.111Z,51.73
2022-11-08T13:21:41.171Z,50.78
2022-11-08T13:24:45.132Z,51.16
2022-11-08T13:27:49.783Z,51.96
2022-11-08T13:31:02.176Z,51.36
2022-11-08T13:34:18.332Z,51.07
2022-11-08T13:37:43.866Z,51.16
2022-11-08T13:41:09.656Z,51.84
2022-11-08T13:44:44.837Z,51.91
2022-11-08T13:47:54.193Z,51.96
2022-11-08T13:50:58.934Z,51.85
2022-11-08T13:54:03.565Z,52.14
2022-11-08T13:57:18.768Z,52.61
2022-11-08T14:00:44.278Z,52.54
2022-11-08T14:03:57.482Z,52.68
2022-11-08T14:07:09.131Z,52.88
2022-11-08T14:10:22.268Z,53.18
2022-11-08T14:13:29.740Z,52.82
2022-11-08T14:16:42.189Z,52.87
2022-11-08T14:19:46.950Z,52.50
2022-11-08T14:22:51.061Z,52.96
2022-11-08T14:25:56.248Z,53.21
2022-11-08T14:29:01.382Z,53.06
2022-11-08T14:32:06.346Z,54.26
2022-11-08T14:35:22.554Z,54.25
2022-11-08T14:38:27.065Z,54.43
2022-11-08T14:41:31.369Z,54.83
2022-11-08T14:44:34.036Z,55.31
2022-11-08T14:47:40.879Z,54.90
2022-11-08T14:50:43.653Z,54.95
2022-11-08T14:53:48.931Z,54.99
2022-11-08T14:56:51.900Z,55.66
2022-11-08T14:59:56.671Z,55.42
2022-11-08T15:03:03.820Z,55.39
2022-11-08T15:06:13.760Z,55.83
2022-11-08T15:09:23.395Z,56.45
2022-11-08T15:12:26.465Z,55.79
2022-11-08T15:15:33.204Z,56.79
2022-11-08T15:18:38.772Z,56.14
2022-11-08T15:21:48.536Z,56.22
2022-11-08T15:25:02.241Z,56.18
2022-11-08T15:28:17.175Z,56.02
2022-11-08T15:31:20.239Z,56.00
2022-11-08T15:34:26.724Z,55.34
2022-11-08T15:37:33.001Z,56.28
2022-11-08T15:40:37.153Z,56.19
2022-11-08T15:43:42.164Z,55.60
2022-11-08T15:46:45.351Z,56.40
2022-11-08T15:49:47.884Z,55.82
2022-11-08T15:52:52.523Z,55.30
2022-11-08T15:56:00.333Z,56.16
2022-11-08T15:59:04.676Z,55.35
2022-11-08T16:02:14.302Z,56.29
2022-11-08T16:05:19.365Z,56.48
2022-11-08T16:08:22.422Z,56.18
2022-11-08T16:11:26.699Z,56.84
2022-11-08T16:14:29.421Z,56.42
2022-11-08T16:17:32.199Z,56.45
2022-11-08T16:20:36.637Z,56.94
2022-11-08T16:23:40.529Z,56.91
2022-11-08T16:26:46.072Z,57.33
2022-11-08T16:29:48.780Z,57.55
2022-11-08T16:32:51.358Z,57.45
2022-11-08T16:35:57.058Z,57.72
2022-11-08T16:39:02.363Z,58.40
2022-11-08T16:42:08.969Z,59.09
2022-11-08T16:45:24.314Z,58.95
2022-11-08T16:48:42.244Z,58.38
2022-11-08T16:51:44.818Z,57.97
2022-11-08T16:54:47.649Z,57.46
2022-11-08T16:57:51.730Z,58.20
2022-11-08T17:00:54.699Z,58.29
2022-11-08T17:03:57.454Z,57.95
2022-11-08T17:07:00.140Z,58.89
2022-11-08T17:10:02.974Z,58.63
2022-11-08T17:13:07.402Z,58.26
2022-11-08T17:16:10.811Z,57.56
2022-11-08T17:19:13.517Z,57.52
2022-11-08T17:22:16.078Z,57.73
2022-11-08T17:25:20.995Z,57.45
2022-11-08T17:28:25.066Z,57.56
2022-11-08T17:31:27.661Z,58.34
2022-11-08T17:34:30.729Z,58.26
2022-11-08T17:37:34.056Z,58.78
2022-11-08T17:40:36.760Z,58.34
2022-11-08T17:43:41.636Z,58.53
2022-11-08T17:46:44.189Z,58.28
2022-11-08T17:49:46.897Z,58.43
2022-11-08T17:52:49.464Z,58.52
2022-11-08T17:55:55.767Z,58.10
2022-11-08T17:58:59.822Z,57.90
2022-11-08T18:02:02.655Z,57.83
2022-11-08T18:05:05.983Z,57.98
2022-11-08T18:08:08.564Z,58.38
2022-11-08T18:11:11.326Z,57.35
2022-11-08T18:14:15.529Z,58.51
2022-11-08T18:17:18.110Z,57.59
2022-11-08T18:20:20.780Z,57.82
2022-11-08T18:23:23.567Z,58.04
2022-11-08T18:26:27.118Z,58.62
2022-11-08T18:29:31.891Z,57.68
2022-11-08T18:32:34.430Z,57.47
2022-11-08T18:35:37.348Z,58.12
2022-11-08T18:38:44.378Z,58.50
2022-11-08T18:41:47.366Z,57.95
2022-11-08T18:44:51.391Z,58.03
2022-11-08T18:47:54.335Z,57.86
2022-11-08T18:50:57.053Z,57.32
2022-11-08T18:53:59.663Z,58.01
2022-11-08T18:57:02.361Z,57.78
2022-11-08T19:00:07.888Z,57.11
2022-11-08T19:03:10.560Z,56.46
2022-11-08T19:06:13.282Z,57.30
2022-11-08T19:09:15.826Z,56.88
2022-11-08T19:12:20.141Z,57.16
2022-11-08T19:15:27.135Z,56.51
2022-11-08T19:18:31.474Z,57.07
2022-11-08T19:21:34.521Z,56.91
2022-11-08T19:24:37.127Z,57.23
2022-11-08T19:27:39.810Z,56.70
2022-11-08T19:30:50.382Z,56.67
2022-11-08T19:33:55.126Z,56.58
2022-11-08T19:36:57.862Z,56.79
2022-11-08T19:40:00.400Z,56.37
2022-11-08T19:43:02.964Z,56.77
2022-11-08T19:46:09.247Z,57.00
2022-11-08T19:49:12.102Z,56.55
2022-11-08T19:52:14.774Z,56.40
2022-11-08T19:55:17.467Z,56.79
2022-11-08T19:58:20.322Z,55.90
2022-11-08T20:01:28.400Z,56.37
2022-11-08T20:04:31.237Z,56.47
2022-11-08T20:07:33.771Z,57.06
2022-11-08T20:10:36.464Z,56.42
2022-11-08T20:13:39.509Z,56.42
2022-11-08T20:16:49.216Z,56.34
2022-11-08T20:19:54.979Z,56.05
2022-11-08T20:22:57.641Z,56.60
2022-11-08T20:26:02.587Z,55.73
2022-11-08T20:29:06.152Z,55.47
2022-11-08T20:32:11.419Z,55.15
2022-11-08T20:35:19.116Z,56.06
2022-11-08T20:38:25.842Z,55.86
2022-11-08T20:41:29.958Z,55.43
2022-11-08T20:44:32.531Z,55.74
2022-11-08T20:47:36.503Z,56.09
2022-11-08T20:50:39.919Z,56.51
2022-11-08T20:53:42.791Z,55.75
2022-11-08T20:56:45.374Z,56.25
2022-11-08T20:59:47.941Z,55.63
2022-11-08T21:02:51.854Z,56.46
2022-11-08T21:05:55.982Z,56.24
2022-11-08T21:09:01.961Z,56.35
2022-11-08T21:12:10.473Z,56.86
2022-11-08T21:15:13.186Z,56.86
2022-11-08T21:18:18.230Z,57.47
2022-11-08T21:21:25.278Z,57.11
2022-11-08T21:24:27.903Z,56.61
2022-11-08T21:27:33.902Z,56.55
2022-11-08T21:30:37.111Z,57.03
2022-11-08T21:33:41.305Z,57.00
2022-11-08T21:36:43.992Z,57.32
2022-11-08T21:39:46.570Z,56.69
2022-11-08T21:42:49.271Z,55.97
2022-11-08T21:45:51.983Z,56.25
2022-11-08T21:48:57.191Z,56.56
2022-11-08T21:51:59.959Z,56.53
2022-11-08T21:55:02.791Z,57.43
2022-11-08T21:58:05.714Z,56.74
2022-11-08T22:01:08.531Z,57.07
2022-11-08T22:04:12.545Z,56.98
2022-11-08T22:07:15.327Z,56.49
2022-11-08T22:10:18.248Z,56.92
2022-11-08T22:13:21.041Z,56.61
2022-11-08T22:16:23.744Z,56.69
2022-11-08T22:19:27.659Z,56.56
2022-11-08T22:22:30.361Z,56.64
2022-11-08T22:25:32.913Z,56.63
2022-11-08T22:28:35.579Z,57.57
2022-11-08T22:31:38.804Z,57.91
2022-11-08T22:34:42.918Z,57.59
2022-11-08T22:37:47.046Z,57.67
2022-11-08T22:40:49.589Z,57.91
2022-11-08T22:43:52.858Z,58.13
2022-11-08T22:46:56.030Z,57.92
2022-11-08T22:49:59.972Z,57.98
2022-11-08T22:53:03.014Z,57.66
2022-11-08T22:56:11.041Z,58.26
2022-11-08T22:59:14.442Z,58.51
2022-11-08T23:02:17.060Z,58.24
2022-11-08T23:05:20.986Z,58.24
2022-11-08T23:08:25.431Z,58.73
2022-11-08T23:11:45.507Z,58.47
2022-11-08T23:15:05.741Z,57.90
2022-11-08T23:18:08.645Z,58.11
2022-11-08T23:21:30.264Z,58.54
2022-11-08T23:24:33.558Z,58.70
2022-11-08T23:27:53.885Z,58.74
2022-11-08T23:31:14.318Z,59.42
2022-11-08T23:34:16.871Z,59.54
2022-11-08T23:37:20.916Z,59.26
2022-11-08T23:40:41.448Z,59.90
2022-11-08T23:44:01.699Z,59.55
2022-11-08T23:47:04.454Z,60.21
2022-11-08T23:50:08.025Z,60.29
2022-11-08T23:53:12.060Z,60.35
2022-11-08T23:56:21.392Z,60.17
2022-11-08T23:59:23.937Z,60.56
